createdAt,value
2023-01-07T00:00:58.015Z,89.40
2023-01-07T00:01:58.187Z,90.36
2023-01-07T00:02:57.953Z,90.03
2023-01-07T00:03:59.086Z,89.98
2023-01-07T00:04:58.037Z,89.98
2023-01-07T00:05:57.782Z,90.41
2023-01-07T00:06:57.742Z,90.31
2023-01-07T00:07:58.009Z,90.31
2023-01-07T00:08:57.721Z,90.31
2023-01-07T00:09:57.819Z,90.22
2023-01-07T00:10:57.564Z,89.50
2023-01-07T00:11:57.528Z,89.54
2023-01-07T00:12:57.470Z,90.12
2023-01-07T00:13:57.555Z,90.26
2023-01-07T00:14:57.388Z,90.31
2023-01-07T00:15:57.519Z,90.12
2023-01-07T00:16:57.288Z,90.26
2023-01-07T00:17:57.241Z,90.08
2023-01-07T00:18:57.209Z,90.26
2023-01-07T00:19:57.293Z,90.08
2023-01-07T00:20:57.240Z,90.17
2023-01-07T00:21:57.191Z,90.31
2023-01-07T00:22:57.052Z,90.08
2023-01-07T00:23:57.030Z,90.26
2023-01-07T00:24:56.921Z,90.31
2023-01-07T00:25:56.911Z,89.98
2023-01-07T00:26:57.069Z,90.26
2023-01-07T00:27:56.829Z,90.45
2023-01-07T00:28:56.801Z,90.26
2023-01-07T00:29:56.693Z,90.36
2023-01-07T00:30:56.758Z,90.36
2023-01-07T00:31:56.681Z,90.08
2023-01-07T00:32:56.583Z,90.26
2023-01-07T00:33:56.665Z,90.17
2023-01-07T00:34:56.465Z,90.17
2023-01-07T00:35:56.421Z,90.08
2023-01-07T00:36:56.393Z,90.26
2023-01-07T00:37:56.391Z,89.98
2023-01-07T00:38:56.434Z,90.17
2023-01-07T00:39:56.296Z,90.08
2023-01-07T00:40:56.208Z,90.36
2023-01-07T00:41:56.381Z,90.84
2023-01-07T00:42:56.110Z,91.03
2023-01-07T00:43:56.260Z,90.84
2023-01-07T00:44:56.019Z,91.13
2023-01-07T00:45:56.165Z,91.88
2023-01-07T00:46:56.028Z,91.60
2023-01-07T00:47:56.009Z,91.50
2023-01-07T00:48:55.843Z,91.13
2023-01-07T00:49:55.965Z,91.41
2023-01-07T00:50:55.796Z,91.60
2023-01-07T00:51:55.773Z,91.31
2023-01-07T00:52:55.694Z,91.41
2023-01-07T00:53:55.697Z,91.50
2023-01-07T00:54:55.647Z,91.60
2023-01-07T00:55:55.617Z,91.50
2023-01-07T00:56:55.470Z,91.31
2023-01-07T00:57:55.559Z,91.69
2023-01-07T00:58:55.394Z,90.93
2023-01-07T00:59:55.695Z,90.93
2023-01-07T01:00:55.548Z,91.31
2023-01-07T01:01:55.438Z,91.69
2023-01-07T01:02:55.254Z,91.41
2023-01-07T01:03:55.164Z,91.50
2023-01-07T01:04:55.254Z,91.69
2023-01-07T01:05:55.109Z,90.93
2023-01-07T01:06:55.104Z,90.84
2023-01-07T01:07:54.977Z,91.13
2023-01-07T01:08:54.971Z,91.03
2023-01-07T01:09:54.885Z,91.03
2023-01-07T01:10:54.987Z,91.22
2023-01-07T01:11:54.786Z,91.79
2023-01-07T01:12:54.900Z,91.41
2023-01-07T01:13:54.708Z,91.50
2023-01-07T01:14:54.738Z,91.41
2023-01-07T01:15:54.656Z,91.31
2023-01-07T01:16:54.725Z,91.50
2023-01-07T01:17:54.517Z,91.41
2023-01-07T01:18:54.530Z,91.60
2023-01-07T01:19:54.439Z,91.60
2023-01-07T01:20:54.545Z,91.41
2023-01-07T01:21:54.410Z,91.50
2023-01-07T01:22:54.768Z,91.60
2023-01-07T01:23:54.253Z,91.50
2023-01-07T01:24:54.377Z,91.50
2023-01-07T01:25:54.151Z,92.27
2023-01-07T01:26:54.389Z,92.74
2023-01-07T01:27:54.136Z,92.46
2023-01-07T01:28:54.093Z,92.27
2023-01-07T01:29:53.969Z,92.46
2023-01-07T01:30:54.010Z,92.84
2023-01-07T01:31:53.943Z,92.84
2023-01-07T01:32:54.227Z,92.65
2023-01-07T01:33:53.825Z,92.65
2023-01-07T01:34:53.761Z,92.55
2023-01-07T01:35:53.712Z,92.55
2023-01-07T01:36:54.878Z,92.84
2023-01-07T01:37:53.642Z,92.36
2023-01-07T01:38:53.665Z,92.36
2023-01-07T01:39:53.528Z,92.08
2023-01-07T01:40:53.725Z,92.17
2023-01-07T01:41:53.423Z,92.17
2023-01-07T01:42:53.481Z,92.27
2023-01-07T01:43:53.358Z,92.65
2023-01-07T01:44:53.408Z,93.03
2023-01-07T01:45:53.299Z,92.65
2023-01-07T01:46:53.248Z,92.65
2023-01-07T01:47:53.165Z,92.17
2023-01-07T01:48:53.336Z,92.27
2023-01-07T01:49:53.057Z,91.88
2023-01-07T01:50:53.130Z,92.17
2023-01-07T01:51:53.188Z,92.36
2023-01-07T01:52:52.953Z,92.65
2023-01-07T01:53:52.945Z,92.08
2023-01-07T01:54:52.843Z,91.88
2023-01-07T01:55:52.965Z,91.79
2023-01-07T01:56:52.747Z,92.17
2023-01-07T01:57:52.774Z,91.60
2023-01-07T01:58:52.908Z,92.08
2023-01-07T01:59:52.605Z,91.88
2023-01-07T02:00:52.883Z,91.50
2023-01-07T02:01:52.597Z,92.17
2023-01-07T02:02:52.656Z,92.08
2023-01-07T02:03:52.429Z,92.17
2023-01-07T02:04:52.435Z,91.88
2023-01-07T02:05:52.423Z,92.17
2023-01-07T02:06:52.295Z,91.88
2023-01-07T02:07:52.435Z,91.98
2023-01-07T02:08:52.207Z,91.98
2023-01-07T02:09:52.244Z,92.08
2023-01-07T02:10:52.251Z,91.98
2023-01-07T02:11:52.064Z,91.79
2023-01-07T02:12:52.063Z,91.98
2023-01-07T02:13:51.972Z,91.98
2023-01-07T02:14:52.114Z,91.69
2023-01-07T02:15:51.892Z,91.88
2023-01-07T02:16:51.847Z,91.69
2023-01-07T02:17:51.904Z,92.46
2023-01-07T02:18:51.867Z,92.65
2023-01-07T02:19:52.929Z,92.93
2023-01-07T02:20:51.663Z,92.27
2023-01-07T02:21:52.740Z,92.89
2023-01-07T02:22:51.571Z,93.08
2023-01-07T02:23:51.760Z,93.27
2023-01-07T02:24:59.687Z,93.41
2023-01-07T02:25:59.735Z,93.55
2023-01-07T02:26:58.723Z,93.84
2023-01-07T02:27:51.339Z,94.13
2023-01-07T02:28:51.286Z,94.13
2023-01-07T02:29:51.281Z,94.51
2023-01-07T02:30:51.382Z,94.98
2023-01-07T02:31:51.219Z,94.89
2023-01-07T02:32:51.181Z,95.56
2023-01-07T02:33:51.141Z,95.46
2023-01-07T02:34:51.104Z,96.22
2023-01-07T02:35:51.059Z,96.03
2023-01-07T02:36:51.010Z,96.12
2023-01-07T02:37:50.905Z,96.03
2023-01-07T02:38:51.045Z,95.08
2023-01-07T02:39:50.787Z,95.56
2023-01-07T02:40:50.866Z,95.65
2023-01-07T02:41:50.713Z,95.46
2023-01-07T02:42:50.747Z,95.56
2023-01-07T02:43:50.611Z,95.08
2023-01-07T02:44:50.663Z,95.08
2023-01-07T02:45:50.577Z,95.27
2023-01-07T02:46:50.671Z,95.08
2023-01-07T02:47:51.785Z,95.08
2023-01-07T02:48:50.485Z,95.17
2023-01-07T02:49:50.327Z,95.08
2023-01-07T02:50:51.445Z,95.08
2023-01-07T02:51:50.324Z,95.46
2023-01-07T02:52:50.189Z,94.98
2023-01-07T02:53:50.212Z,94.89
2023-01-07T02:54:50.097Z,94.51
2023-01-07T02:55:50.129Z,94.32
2023-01-07T02:56:50.193Z,94.13
2023-01-07T02:57:49.958Z,94.89
2023-01-07T02:58:49.934Z,94.03
2023-01-07T02:59:49.947Z,94.60
2023-01-07T03:00:49.934Z,94.32
2023-01-07T03:01:49.936Z,94.60
2023-01-07T03:02:49.802Z,94.32
2023-01-07T03:03:49.772Z,94.89
2023-01-07T03:04:49.788Z,94.79
2023-01-07T03:05:49.612Z,94.13
2023-01-07T03:06:49.645Z,95.36
2023-01-07T03:07:49.510Z,94.89
2023-01-07T03:08:49.824Z,95.08
2023-01-07T03:09:49.416Z,95.27
2023-01-07T03:10:49.664Z,95.36
2023-01-07T03:11:49.324Z,95.08
2023-01-07T03:12:49.442Z,95.08
2023-01-07T03:13:49.235Z,95.75
2023-01-07T03:14:49.348Z,95.65
2023-01-07T03:15:49.174Z,95.65
2023-01-07T03:16:49.350Z,95.75
2023-01-07T03:17:49.059Z,95.27
2023-01-07T03:18:49.067Z,95.17
2023-01-07T03:19:48.965Z,95.36
2023-01-07T03:20:49.292Z,96.03
2023-01-07T03:21:48.897Z,95.46
2023-01-07T03:22:48.893Z,96.32
2023-01-07T03:23:48.790Z,96.03
2023-01-07T03:24:48.911Z,96.32
2023-01-07T03:25:48.682Z,95.46
2023-01-07T03:26:48.814Z,95.75
2023-01-07T03:27:48.625Z,95.65
2023-01-07T03:28:48.624Z,95.17
2023-01-07T03:29:48.584Z,95.27
2023-01-07T03:30:48.576Z,94.89
2023-01-07T03:31:48.470Z,95.08
2023-01-07T03:32:48.456Z,94.79
2023-01-07T03:33:48.317Z,94.60
2023-01-07T03:34:48.368Z,94.89
2023-01-07T03:35:48.274Z,95.36
2023-01-07T03:36:49.407Z,95.08
2023-01-07T03:37:48.144Z,94.79
2023-01-07T03:38:48.355Z,95.36
2023-01-07T03:39:48.057Z,94.79
2023-01-07T03:40:48.216Z,94.60
2023-01-07T03:41:48.065Z,94.74
2023-01-07T03:42:48.038Z,94.22
2023-01-07T03:43:47.880Z,94.03
2023-01-07T03:44:47.924Z,94.13
2023-01-07T03:45:47.904Z,94.13
2023-01-07T03:46:47.850Z,94.08
2023-01-07T03:47:47.688Z,93.93
2023-01-07T03:48:47.662Z,93.74
2023-01-07T03:49:47.587Z,93.93
2023-01-07T03:50:47.546Z,94.79
2023-01-07T03:51:47.551Z,94.70
2023-01-07T03:52:47.881Z,94.51
2023-01-07T03:53:47.404Z,94.41
2023-01-07T03:54:47.497Z,94.70
2023-01-07T03:55:47.312Z,94.70
2023-01-07T03:56:47.281Z,94.03
2023-01-07T03:57:47.220Z,94.37
2023-01-07T03:58:47.317Z,93.65
2023-01-07T03:59:47.136Z,93.37
2023-01-07T04:00:47.162Z,93.65
2023-01-07T04:01:47.191Z,93.55
2023-01-07T04:02:46.992Z,93.17
2023-01-07T04:03:46.958Z,93.74
2023-01-07T04:04:47.312Z,93.93
2023-01-07T04:05:46.885Z,93.37
2023-01-07T04:06:46.961Z,93.27
2023-01-07T04:07:46.770Z,93.84
2023-01-07T04:08:46.728Z,93.46
2023-01-07T04:09:46.674Z,93.37
2023-01-07T04:10:46.986Z,94.03
2023-01-07T04:11:46.634Z,94.22
2023-01-07T04:12:46.811Z,94.13
2023-01-07T04:13:46.493Z,93.93
2023-01-07T04:14:46.466Z,93.93
2023-01-07T04:15:46.408Z,93.84
2023-01-07T04:16:46.677Z,94.13
2023-01-07T04:17:46.343Z,93.74
2023-01-07T04:18:46.431Z,94.13
2023-01-07T04:19:46.225Z,94.03
2023-01-07T04:20:46.181Z,94.13
2023-01-07T04:21:46.249Z,93.84
2023-01-07T04:22:46.081Z,93.37
2023-01-07T04:23:46.468Z,93.55
2023-01-07T04:24:45.994Z,93.46
2023-01-07T04:25:45.974Z,93.27
2023-01-07T04:26:45.941Z,93.74
2023-01-07T04:27:45.849Z,93.74
2023-01-07T04:28:45.915Z,93.65
2023-01-07T04:29:45.824Z,93.55
2023-01-07T04:30:45.876Z,93.46
2023-01-07T04:31:45.674Z,93.55
2023-01-07T04:32:45.631Z,93.65
2023-01-07T04:33:45.586Z,93.93
2023-01-07T04:34:45.732Z,94.13
2023-01-07T04:35:45.605Z,93.74
2023-01-07T04:36:45.752Z,94.03
2023-01-07T04:37:45.400Z,93.65
2023-01-07T04:38:45.381Z,93.65
2023-01-07T04:39:45.563Z,93.55
2023-01-07T04:40:45.336Z,93.65
2023-01-07T04:41:45.381Z,93.74
2023-01-07T04:42:45.195Z,93.93
2023-01-07T04:43:46.217Z,93.37
2023-01-07T04:44:45.079Z,93.46
2023-01-07T04:45:45.263Z,93.37
2023-01-07T04:46:44.985Z,93.37
2023-01-07T04:47:45.226Z,93.55
2023-01-07T04:48:45.092Z,93.46
2023-01-07T04:49:45.034Z,93.37
2023-01-07T04:50:44.802Z,94.03
2023-01-07T04:51:44.843Z,93.55
2023-01-07T04:52:44.711Z,93.46
2023-01-07T04:53:44.890Z,92.98
2023-01-07T04:54:44.679Z,92.98
2023-01-07T04:55:46.303Z,92.79
2023-01-07T04:56:44.536Z,92.50
2023-01-07T04:57:44.667Z,92.89
2023-01-07T04:58:44.445Z,92.79
2023-01-07T04:59:44.608Z,91.65
2023-01-07T05:00:44.380Z,91.74
2023-01-07T05:01:44.434Z,91.46
2023-01-07T05:02:44.305Z,91.46
2023-01-07T05:03:44.301Z,91.55
2023-01-07T05:04:44.194Z,91.74
2023-01-07T05:05:44.383Z,92.79
2023-01-07T05:06:44.175Z,92.32
2023-01-07T05:07:44.027Z,92.41
2023-01-07T05:08:43.983Z,92.41
2023-01-07T05:09:44.141Z,92.60
2023-01-07T05:10:43.895Z,92.22
2023-01-07T05:11:43.953Z,92.13
2023-01-07T05:12:43.815Z,92.79
2023-01-07T05:13:45.045Z,92.79
2023-01-07T05:14:43.703Z,92.50
2023-01-07T05:15:43.786Z,92.22
2023-01-07T05:16:43.634Z,92.03
2023-01-07T05:17:43.789Z,92.60
2023-01-07T05:18:43.526Z,92.13
2023-01-07T05:19:43.519Z,92.13
2023-01-07T05:20:43.627Z,92.13
2023-01-07T05:21:43.411Z,92.03
2023-01-07T05:22:43.422Z,91.27
2023-01-07T05:23:43.302Z,91.17
2023-01-07T05:24:44.504Z,91.55
2023-01-07T05:25:43.502Z,92.13
2023-01-07T05:26:43.297Z,91.84
2023-01-07T05:27:43.107Z,92.03
2023-01-07T05:28:43.262Z,92.13
2023-01-07T05:29:43.073Z,91.46
2023-01-07T05:30:43.181Z,91.65
2023-01-07T05:31:42.959Z,91.55
2023-01-07T05:32:43.094Z,92.03
2023-01-07T05:33:42.882Z,92.13
2023-01-07T05:34:42.900Z,91.55
2023-01-07T05:35:42.749Z,91.84
2023-01-07T05:36:42.912Z,91.65
2023-01-07T05:37:42.651Z,92.13
2023-01-07T05:38:42.719Z,92.13
2023-01-07T05:39:42.619Z,92.22
2023-01-07T05:40:42.745Z,91.84
2023-01-07T05:41:43.616Z,91.46
2023-01-07T05:42:42.555Z,91.74
2023-01-07T05:43:42.443Z,91.74
2023-01-07T05:44:42.321Z,91.55
2023-01-07T05:45:42.601Z,91.46
2023-01-07T05:46:42.256Z,91.36
2023-01-07T05:47:42.272Z,91.46
2023-01-07T05:48:42.148Z,91.36
2023-01-07T05:49:42.111Z,91.27
2023-01-07T05:50:42.055Z,91.55
2023-01-07T05:51:42.203Z,91.27
2023-01-07T05:52:42.037Z,90.79
2023-01-07T05:53:42.217Z,91.84
2023-01-07T05:54:41.919Z,91.84
2023-01-07T05:55:41.827Z,91.74
2023-01-07T05:56:41.836Z,90.98
2023-01-07T05:57:41.730Z,90.79
2023-01-07T05:58:41.847Z,90.98
2023-01-07T05:59:41.673Z,90.22
2023-01-07T06:03:47.774Z,90.94
2023-01-07T06:04:47.515Z,91.22
2023-01-07T06:05:47.625Z,91.70
2023-01-07T06:06:47.346Z,92.36
2023-01-07T06:07:47.287Z,92.08
2023-01-07T06:08:47.442Z,92.65
2023-01-07T06:09:47.191Z,93.03
2023-01-07T06:10:47.461Z,93.03
2023-01-07T06:11:47.313Z,93.51
2023-01-07T06:12:47.067Z,93.70
2023-01-07T06:13:47.005Z,93.13
2023-01-07T06:14:47.076Z,93.32
2023-01-07T06:15:47.001Z,93.32
2023-01-07T06:16:47.092Z,93.32
2023-01-07T06:17:46.821Z,92.74
2023-01-07T06:18:46.903Z,92.74
2023-01-07T06:19:46.935Z,93.03
2023-01-07T06:20:46.740Z,93.22
2023-01-07T06:21:46.924Z,93.03
2023-01-07T06:22:46.592Z,92.36
2023-01-07T06:23:46.736Z,92.94
2023-01-07T06:24:46.490Z,92.94
2023-01-07T06:25:46.449Z,92.84
2023-01-07T06:26:46.599Z,92.65
2023-01-07T06:27:46.373Z,92.36
2023-01-07T06:28:46.572Z,93.32
2023-01-07T06:29:46.264Z,92.74
2023-01-07T06:30:46.337Z,92.55
2023-01-07T06:31:46.171Z,92.74
2023-01-07T06:32:46.389Z,92.55
2023-01-07T06:33:46.120Z,92.94
2023-01-07T06:34:46.204Z,92.94
2023-01-07T06:35:46.011Z,93.03
2023-01-07T06:36:46.218Z,92.74
2023-01-07T06:37:45.905Z,92.89
2023-01-07T06:38:46.064Z,93.08
2023-01-07T06:39:46.053Z,93.13
2023-01-07T06:40:45.841Z,93.03
2023-01-07T06:41:45.706Z,93.08
2023-01-07T06:42:47.904Z,92.98
2023-01-07T06:43:45.621Z,92.41
2023-01-07T06:44:45.891Z,92.84
2023-01-07T06:45:46.040Z,92.55
2023-01-07T06:46:45.779Z,92.94
2023-01-07T06:47:45.434Z,93.03
2023-01-07T06:48:45.486Z,93.13
2023-01-07T06:49:45.500Z,92.94
2023-01-07T06:50:45.307Z,92.84
2023-01-07T06:51:45.514Z,93.27
2023-01-07T06:52:45.204Z,93.55
2023-01-07T06:53:45.328Z,93.37
2023-01-07T06:54:45.939Z,93.27
2023-01-07T06:55:45.064Z,93.46
2023-01-07T06:56:45.143Z,93.08
2023-01-07T06:57:45.196Z,93.84
2023-01-07T06:58:47.204Z,93.46
2023-01-07T06:59:44.896Z,93.37
2023-01-07T07:00:44.965Z,92.98
2023-01-07T07:01:46.581Z,93.08
2023-01-07T07:02:45.015Z,93.27
2023-01-07T07:03:44.709Z,92.79
2023-01-07T07:04:44.988Z,92.89
2023-01-07T07:05:44.652Z,92.41
2023-01-07T07:06:44.799Z,92.03
2023-01-07T07:07:44.550Z,91.94
2023-01-07T07:08:44.826Z,91.46
2023-01-07T07:09:44.426Z,90.98
2023-01-07T07:10:44.621Z,90.98
2023-01-07T07:11:44.334Z,90.98
2023-01-07T07:12:44.435Z,91.55
2023-01-07T07:13:44.241Z,91.17
2023-01-07T07:14:44.446Z,90.79
2023-01-07T07:15:44.206Z,89.84
2023-01-07T07:16:44.309Z,89.46
2023-01-07T07:17:44.064Z,89.65
2023-01-07T07:18:45.497Z,89.46
2023-01-07T07:19:44.076Z,89.61
2023-01-07T07:20:43.929Z,88.98
2023-01-07T07:21:44.089Z,88.65
2023-01-07T07:22:44.144Z,88.84
2023-01-07T07:23:43.901Z,89.22
2023-01-07T07:24:43.735Z,89.41
2023-01-07T07:25:43.694Z,89.22
2023-01-07T07:26:43.921Z,89.51
2023-01-07T07:27:43.603Z,89.79
2023-01-07T07:28:43.734Z,89.98
2023-01-07T07:29:43.507Z,89.98
2023-01-07T07:30:47.814Z,90.08
2023-01-07T07:31:43.460Z,90.08
2023-01-07T07:32:43.553Z,90.75
2023-01-07T07:33:43.363Z,89.79
2023-01-07T07:34:43.564Z,90.08
2023-01-07T07:35:43.238Z,90.17
2023-01-07T07:36:43.484Z,90.46
2023-01-07T07:37:43.137Z,90.65
2023-01-07T07:38:43.288Z,91.22
2023-01-07T07:39:43.384Z,92.18
2023-01-07T07:40:44.124Z,92.18
2023-01-07T07:41:42.953Z,92.27
2023-01-07T07:43:11.659Z,91.99
2023-01-07T07:43:42.862Z,91.79
2023-01-07T07:44:42.928Z,91.79
2023-01-07T07:45:42.791Z,92.27
2023-01-07T07:46:42.972Z,92.84
2023-01-07T07:47:42.683Z,91.99
2023-01-07T07:48:42.746Z,92.36
2023-01-07T07:49:42.806Z,92.65
2023-01-07T07:50:42.762Z,92.55
2023-01-07T07:51:42.495Z,92.55
2023-01-07T07:52:42.592Z,92.36
2023-01-07T07:53:42.408Z,92.46
2023-01-07T07:54:42.592Z,92.65
2023-01-07T07:55:42.311Z,92.65
2023-01-07T07:56:42.398Z,91.89
2023-01-07T07:57:42.223Z,91.51
2023-01-07T07:58:42.414Z,91.51
2023-01-07T07:59:42.126Z,92.36
2023-01-07T08:00:42.428Z,91.99
2023-01-07T08:01:43.331Z,91.31
2023-01-07T08:02:41.992Z,91.51
2023-01-07T08:03:42.297Z,91.79
2023-01-07T08:04:41.893Z,91.79
2023-01-07T08:05:42.071Z,92.27
2023-01-07T08:06:41.804Z,91.99
2023-01-07T08:07:41.756Z,91.99
2023-01-07T08:08:41.877Z,91.70
2023-01-07T08:09:41.933Z,91.51
2023-01-07T08:10:42.912Z,91.89
2023-01-07T08:11:41.575Z,91.99
2023-01-07T08:12:41.703Z,92.27
2023-01-07T08:13:41.480Z,91.99
2023-01-07T08:14:43.783Z,92.08
2023-01-07T08:15:41.407Z,92.84
2023-01-07T08:16:41.526Z,91.70
2023-01-07T08:17:41.306Z,91.99
2023-01-07T08:18:41.746Z,91.60
2023-01-07T08:19:41.209Z,91.31
2023-01-07T08:20:41.351Z,92.18
2023-01-07T08:21:41.133Z,91.22
2023-01-07T08:22:41.369Z,91.51
2023-01-07T08:23:41.031Z,91.31
2023-01-07T08:24:41.376Z,92.08
2023-01-07T08:25:40.944Z,91.03
2023-01-07T08:26:41.191Z,91.51
2023-01-07T08:27:40.842Z,91.22
2023-01-07T08:28:41.001Z,91.70
2023-01-07T08:29:40.746Z,90.94
2023-01-07T08:30:41.009Z,90.75
2023-01-07T08:31:40.911Z,90.65
2023-01-07T08:32:40.846Z,90.84
2023-01-07T08:33:40.553Z,90.75
2023-01-07T08:34:40.634Z,90.94
2023-01-07T08:35:40.462Z,90.94
2023-01-07T08:36:40.651Z,90.17
2023-01-07T08:37:40.554Z,89.89
2023-01-07T08:38:41.555Z,89.89
2023-01-07T08:39:40.457Z,90.17
2023-01-07T08:40:40.471Z,89.89
2023-01-07T08:41:40.187Z,90.17
2023-01-07T08:42:40.522Z,90.08
2023-01-07T08:43:40.097Z,90.08
2023-01-07T08:45:01.190Z,89.22
2023-01-07T08:45:40.034Z,87.98
2023-01-07T08:46:40.125Z,88.08
2023-01-07T08:47:40.038Z,88.46
2023-01-07T08:48:39.868Z,88.60
2023-01-07T08:49:40.131Z,87.65
2023-01-07T08:50:39.782Z,87.17
2023-01-07T08:51:39.936Z,87.36
2023-01-07T08:52:39.992Z,87.17
2023-01-07T08:53:39.947Z,86.22
2023-01-07T08:54:39.588Z,85.64
2023-01-07T08:55:39.756Z,86.32
2023-01-07T08:56:39.497Z,85.46
2023-01-07T08:57:39.773Z,85.27
2023-01-07T08:58:39.447Z,85.17
2023-01-07T08:59:39.583Z,85.36
2023-01-07T09:00:39.343Z,84.79
2023-01-07T09:01:39.463Z,85.08
2023-01-07T09:02:39.433Z,85.64
2023-01-07T09:03:39.198Z,85.55
2023-01-07T09:04:39.316Z,84.98
2023-01-07T09:05:39.082Z,84.03
2023-01-07T09:06:39.121Z,83.45
2023-01-07T09:07:39.001Z,82.31
2023-01-07T09:08:40.373Z,82.21
2023-01-07T09:09:38.933Z,82.69
2023-01-07T09:10:38.947Z,82.41
2023-01-07T09:11:38.807Z,82.69
2023-01-07T09:12:38.973Z,82.69
2023-01-07T09:13:38.717Z,82.21
2023-01-07T09:14:38.831Z,82.03
2023-01-07T09:15:38.826Z,81.36
2023-01-07T09:16:38.812Z,81.46
2023-01-07T09:17:38.537Z,81.26
2023-01-07T09:18:39.625Z,81.65
2023-01-07T09:19:38.446Z,81.17
2023-01-07T09:20:38.608Z,81.07
2023-01-07T09:21:38.377Z,81.17
2023-01-07T09:22:38.422Z,81.36
2023-01-07T09:23:38.264Z,82.31
2023-01-07T09:24:38.230Z,82.41
2023-01-07T09:25:38.174Z,81.74
2023-01-07T09:26:38.243Z,81.41
2023-01-07T09:27:38.102Z,81.79
2023-01-07T09:28:38.067Z,81.79
2023-01-07T09:29:37.991Z,81.98
2023-01-07T09:30:38.068Z,81.41
2023-01-07T09:31:37.947Z,81.51
2023-01-07T09:32:37.985Z,81.70
2023-01-07T09:33:37.998Z,81.89
2023-01-07T09:34:37.892Z,82.18
2023-01-07T09:35:37.708Z,81.98
2023-01-07T09:36:37.724Z,82.18
2023-01-07T09:37:37.625Z,81.74
2023-01-07T09:38:37.730Z,81.70
2023-01-07T09:39:37.576Z,81.74
2023-01-07T09:40:37.543Z,81.07
2023-01-07T09:41:38.689Z,81.07
2023-01-07T09:42:37.554Z,80.50
2023-01-07T09:44:00.646Z,80.69
2023-01-07T09:44:37.295Z,80.41
2023-01-07T09:45:37.395Z,80.69
2023-01-07T09:46:37.235Z,80.02
2023-01-07T09:47:37.382Z,80.31
2023-01-07T09:48:37.109Z,80.50
2023-01-07T09:49:37.072Z,80.41
2023-01-07T09:50:37.205Z,79.74
2023-01-07T09:51:37.053Z,79.93
2023-01-07T09:52:37.044Z,79.74
2023-01-07T09:53:36.887Z,79.36
2023-01-07T09:54:36.917Z,79.27
2023-01-07T09:55:36.791Z,78.98
2023-01-07T09:56:36.935Z,80.02
2023-01-07T09:57:36.736Z,79.55
2023-01-07T09:58:38.017Z,78.83
2023-01-07T09:59:36.612Z,78.25
2023-01-07T10:00:36.753Z,77.82
2023-01-07T10:01:36.555Z,76.39
2023-01-07T10:02:36.511Z,74.61
2023-01-07T10:03:36.836Z,72.17
2023-01-07T10:04:36.392Z,71.34
2023-01-07T10:05:36.393Z,70.58
2023-01-07T10:06:43.608Z,69.56
2023-01-07T10:07:36.245Z,68.13
2023-01-07T10:08:36.413Z,67.02
2023-01-07T10:09:36.191Z,66.63
2023-01-07T10:10:36.230Z,66.16
2023-01-07T10:11:36.073Z,65.68
2023-01-07T10:12:36.234Z,64.09
2023-01-07T10:13:35.980Z,64.18
2023-01-07T10:14:36.038Z,62.97
2023-01-07T10:15:36.001Z,63.00
2023-01-07T10:16:36.154Z,60.61
2023-01-07T10:17:35.813Z,60.06
2023-01-07T10:18:36.886Z,59.11
2023-01-07T10:19:35.738Z,58.72
2023-01-07T10:20:35.889Z,58.46
2023-01-07T10:21:35.673Z,58.11
2023-01-07T10:22:57.832Z,57.34
2023-01-07T10:23:35.568Z,56.70
2023-01-07T10:24:35.699Z,56.31
2023-01-07T10:25:35.485Z,54.97
2023-01-07T10:26:35.528Z,54.21
2023-01-07T10:27:35.580Z,55.04
2023-01-07T10:28:35.546Z,55.52
2023-01-07T10:29:35.320Z,56.38
2023-01-07T10:30:36.361Z,57.03
2023-01-07T10:31:35.315Z,57.31
2023-01-07T10:32:35.349Z,57.12
2023-01-07T10:33:35.154Z,57.41
2023-01-07T10:34:35.163Z,56.67
2023-01-07T10:35:35.074Z,56.29
2023-01-07T10:36:35.174Z,55.93
2023-01-07T10:37:35.037Z,56.02
2023-01-07T10:38:35.189Z,55.55
2023-01-07T10:39:34.923Z,54.42
2023-01-07T10:40:35.004Z,53.66
2023-01-07T10:41:35.050Z,53.44
2023-01-07T10:42:35.028Z,53.72
2023-01-07T10:43:34.816Z,53.46
2023-01-07T10:44:34.720Z,53.36
2023-01-07T10:45:34.899Z,53.08
2023-01-07T10:46:34.635Z,53.46
2023-01-07T10:47:34.861Z,53.27
2023-01-07T10:48:34.561Z,53.36
2023-01-07T10:49:34.527Z,52.22
2023-01-07T10:50:34.868Z,52.12
2023-01-07T10:51:34.443Z,51.83
2023-01-07T10:52:35.502Z,52.05
2023-01-07T10:53:34.354Z,51.57
2023-01-07T10:54:34.487Z,50.90
2023-01-07T10:55:34.283Z,50.61
2023-01-07T10:56:36.712Z,50.63
2023-01-07T10:57:34.202Z,50.63
2023-01-07T10:58:34.321Z,50.34
2023-01-07T10:59:34.132Z,50.05
2023-01-07T11:00:34.340Z,49.77
2023-01-07T11:01:34.277Z,49.69
2023-01-07T11:02:34.054Z,49.41
2023-01-07T11:03:34.356Z,49.53
2023-01-07T11:04:33.944Z,49.33
2023-01-07T11:05:33.957Z,47.97
2023-01-07T11:06:33.880Z,48.45
2023-01-07T11:07:33.846Z,48.47
2023-01-07T11:08:33.988Z,48.57
2023-01-07T11:09:33.772Z,47.99
2023-01-07T11:10:33.802Z,48.08
2023-01-07T11:11:33.682Z,48.18
2023-01-07T11:12:34.008Z,47.80
2023-01-07T11:13:33.595Z,47.51
2023-01-07T11:14:33.817Z,47.72
2023-01-07T11:15:33.520Z,47.34
2023-01-07T11:16:33.678Z,46.86
2023-01-07T11:17:33.444Z,46.95
2023-01-07T11:18:33.638Z,46.88
2023-01-07T11:19:33.449Z,46.31
2023-01-07T11:20:33.365Z,46.69
2023-01-07T11:21:42.774Z,46.59
2023-01-07T11:22:33.261Z,46.78
2023-01-07T11:23:33.268Z,46.78
2023-01-07T11:24:33.223Z,46.50
2023-01-07T11:25:33.338Z,46.62
2023-01-07T11:26:33.290Z,46.23
2023-01-07T11:27:33.068Z,45.05
2023-01-07T11:28:33.104Z,45.15
2023-01-07T11:29:33.007Z,45.83
2023-01-07T11:30:34.153Z,46.28
2023-01-07T11:31:33.208Z,46.28
2023-01-07T11:32:33.155Z,46.57
2023-01-07T11:34:02.621Z,46.57
2023-01-07T11:34:32.810Z,46.88
2023-01-07T11:35:32.767Z,46.78
2023-01-07T11:36:32.956Z,46.52
2023-01-07T11:37:32.721Z,45.75
2023-01-07T11:38:32.678Z,46.04
2023-01-07T11:39:32.779Z,45.94
2023-01-07T11:40:32.636Z,44.89
2023-01-07T11:41:32.787Z,44.79
2023-01-07T11:42:32.508Z,45.00
2023-01-07T11:43:32.471Z,45.20
2023-01-07T11:44:32.432Z,44.56
2023-01-07T11:45:32.865Z,43.60
2023-01-07T11:46:32.428Z,42.90
2023-01-07T11:47:32.522Z,43.02
2023-01-07T11:48:32.292Z,43.00
2023-01-07T11:49:32.289Z,43.10
2023-01-07T11:50:32.337Z,43.55
2023-01-07T11:51:32.176Z,43.85
2023-01-07T11:52:32.353Z,43.37
2023-01-07T11:53:32.105Z,44.98
2023-01-07T11:54:32.159Z,46.01
2023-01-07T11:55:32.061Z,45.15
2023-01-07T11:56:32.179Z,45.73
2023-01-07T11:57:31.957Z,45.53
2023-01-07T11:58:32.010Z,46.09
2023-01-07T11:59:31.885Z,46.86
2023-01-07T12:00:32.008Z,47.80
2023-01-07T12:01:32.185Z,47.80
2023-01-07T12:02:31.847Z,48.08
2023-01-07T12:03:32.869Z,47.80
2023-01-07T12:04:31.706Z,47.80
2023-01-07T12:05:31.740Z,48.38
2023-01-07T12:06:31.626Z,47.80
2023-01-07T12:07:31.607Z,47.82
2023-01-07T12:08:31.760Z,46.84
2023-01-07T12:09:31.500Z,47.51
2023-01-07T12:10:32.792Z,47.31
2023-01-07T12:11:31.462Z,47.99
2023-01-07T12:12:31.677Z,47.51
2023-01-07T12:13:31.360Z,47.22
2023-01-07T12:14:31.341Z,48.02
2023-01-07T12:15:31.308Z,47.53
2023-01-07T12:16:31.449Z,47.63
2023-01-07T12:17:31.206Z,47.63
2023-01-07T12:18:31.416Z,47.05
2023-01-07T12:19:31.226Z,46.50
2023-01-07T12:20:31.093Z,46.50
2023-01-07T12:21:31.438Z,45.90
2023-01-07T12:22:31.021Z,45.92
2023-01-07T12:23:31.056Z,46.01
2023-01-07T12:24:30.977Z,46.11
2023-01-07T12:25:31.343Z,45.92
2023-01-07T12:26:30.869Z,45.61
2023-01-07T12:27:31.077Z,46.28
2023-01-07T12:28:30.803Z,46.40
2023-01-07T12:29:30.899Z,46.21
2023-01-07T12:30:30.721Z,45.94
2023-01-07T12:31:30.709Z,44.96
2023-01-07T12:32:30.911Z,45.83
2023-01-07T12:33:30.941Z,45.44
2023-01-07T12:34:30.719Z,45.63
2023-01-07T12:35:30.533Z,45.92
2023-01-07T12:36:30.729Z,45.92
2023-01-07T12:37:30.454Z,44.79
2023-01-07T12:38:30.423Z,44.69
2023-01-07T12:39:30.549Z,44.23
2023-01-07T12:40:30.362Z,44.81
2023-01-07T12:41:30.588Z,44.35
2023-01-07T12:42:30.418Z,43.96
2023-01-07T12:43:30.228Z,43.77
2023-01-07T12:44:30.406Z,42.93
2023-01-07T12:45:30.161Z,42.83
2023-01-07T12:46:30.256Z,43.00
2023-01-07T12:47:34.824Z,43.07
2023-01-07T12:48:30.204Z,43.07
2023-01-07T12:49:30.021Z,43.87
2023-01-07T12:50:30.216Z,42.61
2023-01-07T12:51:29.938Z,42.80
2023-01-07T12:52:30.031Z,42.71
2023-01-07T12:53:29.864Z,42.97
2023-01-07T12:54:30.461Z,43.27
2023-01-07T12:55:30.886Z,43.55